createdAt,value
2019-03-22T00:10:17.727Z,0.25
2019-03-22T00:10:40.883Z,2.00
2019-03-22T00:11:04.102Z,2.00
2019-03-22T00:11:27.292Z,2.00
2019-03-22T00:14:21.219Z,0.40
2019-03-22T00:16:54.474Z,2.00
2019-03-22T00:19:27.649Z,2.40
2019-03-22T00:22:00.897Z,3.00
2019-03-22T00:24:34.142Z,2.20
2019-03-22T00:27:15.912Z,2.00
2019-03-22T00:29:42.281Z,2.80
2019-03-22T00:32:15.464Z,2.60
2019-03-22T00:34:48.652Z,3.00
2019-03-22T00:37:21.892Z,2.00
2019-03-22T00:39:55.496Z,2.00
2019-03-22T00:42:28.687Z,3.00
2019-03-22T00:45:01.928Z,2.00
2019-03-22T00:47:35.174Z,3.00
2019-03-22T00:50:09.678Z,2.60
2019-03-22T00:52:42.943Z,2.80
2019-03-22T00:55:16.199Z,3.00
2019-03-22T00:57:49.455Z,2.00
2019-03-22T01:00:22.715Z,3.00
2019-03-22T01:02:56.033Z,3.00
2019-03-22T01:05:29.287Z,2.20
2019-03-22T01:08:02.537Z,3.20
2019-03-22T01:10:35.798Z,2.60
2019-03-22T01:13:09.111Z,3.20
2019-03-22T01:15:42.360Z,2.00
2019-03-22T01:18:15.623Z,3.00
2019-03-22T01:20:48.859Z,3.00
2019-03-22T01:23:22.145Z,3.40
2019-03-22T01:25:55.315Z,2.80
2019-03-22T01:28:28.573Z,3.00
2019-03-22T01:31:01.829Z,2.20
2019-03-22T01:33:35.072Z,3.40
2019-03-22T01:36:08.330Z,3.00
2019-03-22T01:38:41.589Z,3.00
2019-03-22T01:41:14.857Z,3.00
2019-03-22T01:43:48.113Z,2.40
2019-03-22T01:46:21.359Z,2.00
2019-03-22T01:48:54.561Z,2.00
2019-03-22T01:51:27.815Z,3.00
2019-03-22T01:54:01.130Z,3.00
2019-03-22T01:56:34.491Z,3.00
2019-03-22T01:59:07.774Z,3.00
2019-03-22T02:01:41.038Z,2.00
2019-03-22T02:04:14.428Z,2.80
2019-03-22T02:06:47.766Z,3.00
2019-03-22T02:09:21.062Z,2.60
2019-03-22T02:11:54.367Z,3.00
2019-03-22T02:14:27.642Z,2.60
2019-03-22T02:17:00.818Z,3.00
2019-03-22T02:19:34.164Z,3.00
2019-03-22T02:22:07.414Z,3.00
2019-03-22T02:24:40.639Z,2.60
2019-03-22T02:27:13.886Z,3.80
2019-03-22T02:29:47.090Z,3.00
2019-03-22T02:32:20.422Z,3.00
2019-03-22T02:34:53.738Z,3.00
2019-03-22T02:37:27.013Z,2.00
2019-03-22T02:40:00.574Z,3.00
2019-03-22T02:42:33.980Z,3.00
2019-03-22T02:45:08.907Z,2.40
2019-03-22T02:47:42.153Z,2.00
2019-03-22T02:50:20.009Z,3.00
2019-03-22T02:52:50.450Z,3.00
2019-03-22T02:55:23.764Z,2.00
2019-03-22T02:57:57.028Z,3.00
2019-03-22T03:00:30.324Z,2.80
2019-03-22T03:03:03.574Z,3.20
2019-03-22T03:05:36.857Z,3.00
2019-03-22T03:08:10.114Z,2.60
2019-03-22T03:10:43.545Z,2.80
2019-03-22T03:13:16.811Z,3.00
2019-03-22T03:15:50.094Z,2.00
2019-03-22T03:18:23.336Z,3.00
2019-03-22T03:20:56.550Z,2.80
2019-03-22T03:23:29.808Z,3.80
2019-03-22T03:26:03.130Z,2.00
2019-03-22T03:28:37.543Z,3.40
2019-03-22T03:31:11.063Z,3.00
2019-03-22T03:33:44.319Z,3.40
2019-03-22T03:36:17.599Z,3.80
2019-03-22T03:38:50.870Z,2.60
2019-03-22T03:41:24.132Z,2.80
2019-03-22T03:43:57.402Z,2.60
2019-03-22T03:46:30.675Z,4.00
2019-03-22T03:49:03.930Z,2.40
2019-03-22T03:51:37.231Z,3.80
2019-03-22T03:54:10.495Z,3.00
2019-03-22T03:56:43.840Z,3.00
2019-03-22T03:59:17.021Z,3.00
2019-03-22T04:01:50.327Z,3.00
2019-03-22T04:04:23.569Z,2.60
2019-03-22T04:06:56.853Z,2.00
2019-03-22T04:09:30.111Z,2.40
2019-03-22T04:12:03.415Z,2.40
2019-03-22T04:14:36.668Z,2.60
2019-03-22T04:17:09.933Z,3.00
2019-03-22T04:19:43.182Z,3.00
2019-03-22T04:22:16.476Z,3.00
2019-03-22T04:24:49.734Z,3.00
2019-03-22T04:27:23.024Z,2.00
2019-03-22T04:29:56.284Z,3.00
2019-03-22T04:32:29.566Z,4.00
2019-03-22T04:35:03.412Z,2.80
2019-03-22T04:37:36.672Z,3.00
2019-03-22T04:40:22.591Z,3.00
2019-03-22T04:42:55.871Z,4.00
2019-03-22T04:45:29.790Z,2.40
2019-03-22T04:48:07.657Z,3.80
2019-03-22T04:50:40.925Z,3.40
2019-03-22T04:53:15.759Z,4.00
2019-03-22T04:55:50.796Z,2.80
2019-03-22T04:58:24.181Z,3.00
2019-03-22T05:00:57.504Z,3.00
2019-03-22T05:03:30.787Z,3.60
2019-03-22T05:06:04.056Z,2.60
2019-03-22T05:08:38.195Z,2.40
2019-03-22T05:11:11.619Z,2.20
2019-03-22T05:13:45.672Z,2.00
2019-03-22T05:16:18.926Z,2.00
2019-03-22T05:18:52.208Z,2.40
2019-03-22T05:21:25.443Z,3.00
2019-03-22T05:23:59.619Z,3.00
2019-03-22T05:26:32.866Z,2.00
2019-03-22T05:29:06.152Z,1.60
2019-03-22T05:31:47.041Z,2.60
2019-03-22T05:34:20.255Z,2.60
2019-03-22T05:36:53.506Z,1.80
2019-03-22T05:39:26.799Z,1.40
2019-03-22T05:42:00.065Z,2.00
2019-03-22T05:44:33.346Z,2.00
2019-03-22T05:47:06.589Z,2.20
2019-03-22T05:49:39.862Z,1.80
2019-03-22T05:52:13.110Z,1.60
2019-03-22T05:54:46.307Z,2.60
2019-03-22T05:57:19.478Z,1.80
2019-03-22T05:59:52.690Z,2.00
2019-03-22T06:02:25.938Z,2.00
2019-03-22T06:04:59.222Z,2.00
2019-03-22T06:07:32.471Z,2.00
2019-03-22T06:10:05.820Z,2.20
2019-03-22T06:12:39.070Z,2.00
2019-03-22T06:15:12.384Z,2.40
2019-03-22T06:17:51.721Z,2.00
2019-03-22T06:20:20.534Z,2.00
2019-03-22T06:22:53.790Z,2.00
2019-03-22T06:25:27.094Z,1.60
2019-03-22T06:28:00.350Z,1.80
2019-03-22T06:30:33.631Z,2.00
2019-03-22T06:33:06.888Z,2.00
2019-03-22T06:35:40.168Z,1.20
2019-03-22T06:38:13.493Z,2.00
2019-03-22T06:40:46.714Z,2.20
2019-03-22T06:43:19.973Z,1.80
2019-03-22T06:45:53.265Z,2.40
2019-03-22T06:48:26.516Z,2.00
2019-03-22T06:50:59.805Z,2.00
2019-03-22T06:53:33.054Z,2.00
2019-03-22T06:56:06.370Z,2.60
2019-03-22T06:58:39.618Z,2.40
2019-03-22T07:01:12.893Z,2.60
2019-03-22T07:03:46.143Z,2.00
2019-03-22T07:06:19.441Z,3.00
2019-03-22T07:08:52.694Z,3.00
2019-03-22T07:11:25.952Z,3.00
2019-03-22T07:13:59.220Z,3.00
2019-03-22T07:16:32.494Z,4.00
2019-03-22T07:19:05.662Z,2.40
2019-03-22T07:21:38.957Z,3.20
2019-03-22T07:24:12.281Z,2.40
2019-03-22T07:26:45.571Z,2.00
2019-03-22T07:29:18.846Z,2.60
2019-03-22T07:31:52.140Z,2.80
2019-03-22T07:34:25.391Z,1.80
2019-03-22T07:36:58.684Z,2.00
2019-03-22T07:39:31.926Z,1.60
2019-03-22T07:42:05.281Z,1.00
2019-03-22T07:44:38.519Z,1.40
2019-03-22T07:47:11.806Z,1.20
2019-03-22T07:49:45.065Z,2.00
2019-03-22T07:52:18.414Z,2.00
2019-03-22T07:54:51.614Z,2.00
2019-03-22T07:57:24.951Z,2.00
2019-03-22T07:59:58.154Z,3.00
2019-03-22T08:02:31.580Z,2.20
2019-03-22T08:05:05.298Z,2.20
2019-03-22T08:07:38.594Z,2.80
2019-03-22T08:10:11.833Z,2.20
2019-03-22T08:12:45.130Z,2.60
2019-03-22T08:15:20.030Z,2.40
2019-03-22T08:17:53.317Z,3.00
2019-03-22T08:20:26.581Z,2.80
2019-03-22T08:22:59.859Z,3.00
2019-03-22T08:25:33.116Z,3.00
2019-03-22T08:28:06.397Z,3.00
2019-03-22T08:30:43.175Z,3.00
2019-03-22T08:33:14.589Z,4.80
2019-03-22T08:35:47.814Z,4.00
2019-03-22T08:38:21.027Z,2.20
2019-03-22T08:40:54.290Z,3.40
2019-03-22T08:43:27.610Z,2.20
2019-03-22T08:46:00.822Z,2.60
2019-03-22T08:48:34.113Z,2.00
2019-03-22T08:51:07.399Z,3.00
2019-03-22T08:53:40.682Z,3.00
2019-03-22T08:56:13.920Z,3.00
2019-03-22T08:58:47.204Z,2.80
2019-03-22T09:01:20.446Z,2.80
2019-03-22T09:03:53.735Z,3.00
2019-03-22T09:06:27.024Z,2.60
2019-03-22T09:09:00.293Z,6.60
2019-03-22T09:11:33.560Z,7.60
2019-03-22T09:14:06.843Z,4.80
2019-03-22T09:16:40.086Z,4.80
2019-03-22T09:19:13.393Z,4.20
2019-03-22T09:21:46.637Z,3.60
2019-03-22T09:24:19.856Z,3.00
2019-03-22T09:26:53.123Z,3.60
2019-03-22T09:29:26.400Z,3.00
2019-03-22T09:31:59.638Z,3.00
2019-03-22T09:34:34.164Z,3.60
2019-03-22T09:37:08.939Z,2.40
2019-03-22T09:39:42.379Z,3.00
2019-03-22T09:42:15.715Z,1.00
2019-03-22T09:44:49.064Z,3.00
2019-03-22T09:47:22.295Z,2.60
2019-03-22T09:49:55.596Z,3.00
2019-03-22T09:52:28.818Z,2.00
2019-03-22T09:55:12.488Z,2.40
2019-03-22T09:57:37.005Z,2.80
2019-03-22T10:00:11.937Z,2.00
2019-03-22T10:02:45.269Z,2.00
2019-03-22T10:05:18.589Z,3.00
2019-03-22T10:07:51.808Z,1.80
2019-03-22T10:10:25.109Z,2.00
2019-03-22T10:12:58.356Z,2.20
2019-03-22T10:15:31.694Z,2.40
2019-03-22T10:18:04.969Z,2.80
2019-03-22T10:20:38.258Z,1.60
2019-03-22T10:23:11.530Z,2.80
2019-03-22T10:25:44.816Z,2.40
2019-03-22T10:28:18.114Z,2.80
2019-03-22T10:30:51.346Z,2.80
2019-03-22T10:33:24.629Z,2.60
2019-03-22T10:35:57.899Z,1.20
2019-03-22T10:38:32.137Z,1.20
2019-03-22T10:41:05.641Z,2.00
2019-03-22T10:43:38.848Z,1.00
2019-03-22T10:46:12.173Z,1.00
2019-03-22T10:48:45.394Z,1.20
2019-03-22T10:51:21.416Z,1.20
2019-03-22T10:53:53.593Z,2.20
2019-03-22T10:56:26.846Z,6.20
2019-03-22T10:59:00.095Z,8.20
2019-03-22T11:01:46.459Z,6.60
2019-03-22T11:06:41.462Z,5.20
2019-03-22T11:09:14.700Z,2.60
2019-03-22T11:11:47.976Z,3.00
2019-03-22T11:14:21.241Z,2.00
2019-03-22T11:16:54.488Z,2.00
2019-03-22T11:19:27.740Z,3.00
2019-03-22T11:22:00.990Z,3.00
2019-03-22T11:24:34.245Z,3.20
2019-03-22T11:27:07.521Z,3.20
2019-03-22T11:29:40.757Z,2.40
2019-03-22T11:32:13.957Z,2.60
2019-03-22T11:34:47.213Z,2.00
2019-03-22T11:37:20.467Z,2.80
2019-03-22T11:39:53.691Z,2.80
2019-03-22T11:42:26.879Z,2.40
2019-03-22T11:45:00.128Z,3.20
2019-03-22T11:47:33.487Z,3.80
2019-03-22T11:50:07.431Z,5.20
2019-03-22T11:52:40.677Z,4.60
2019-03-22T11:55:14.027Z,4.80
2019-03-22T11:57:48.066Z,5.20
2019-03-22T12:00:23.009Z,4.80
2019-03-22T12:02:56.279Z,4.20
2019-03-22T12:05:29.525Z,3.80
2019-03-22T12:08:02.765Z,4.00
2019-03-22T12:10:36.018Z,3.00
2019-03-22T12:13:09.229Z,3.20
2019-03-22T12:15:42.481Z,3.40
2019-03-22T12:18:15.765Z,4.00
2019-03-22T12:20:49.014Z,3.40
2019-03-22T12:23:22.476Z,4.40
2019-03-22T12:25:55.713Z,4.80
2019-03-22T12:28:28.933Z,3.80
2019-03-22T12:31:02.241Z,3.40
2019-03-22T12:33:35.529Z,4.20
2019-03-22T12:36:08.775Z,2.60
2019-03-22T12:38:42.057Z,3.20
2019-03-22T12:41:15.328Z,3.80
2019-03-22T12:43:48.639Z,3.60
2019-03-22T12:46:21.864Z,3.60
2019-03-22T12:48:55.153Z,4.00
2019-03-22T12:51:28.401Z,3.40
2019-03-22T12:54:01.675Z,2.80
2019-03-22T12:56:34.923Z,3.80
2019-03-22T12:59:08.194Z,3.40
2019-03-22T13:01:41.369Z,4.00
2019-03-22T13:04:14.592Z,3.00
2019-03-22T13:06:47.849Z,2.40
2019-03-22T13:09:21.138Z,1.20
2019-03-22T13:11:54.380Z,1.20
2019-03-22T13:14:27.674Z,1.00
2019-03-22T13:17:00.917Z,1.00
2019-03-22T13:19:34.206Z,1.00
2019-03-22T13:22:07.458Z,0.00
2019-03-22T13:24:40.742Z,0.00
2019-03-22T13:27:14.079Z,0.00
2019-03-22T13:29:47.376Z,0.00
2019-03-22T13:32:20.672Z,0.00
2019-03-22T13:34:53.932Z,0.00
2019-03-22T13:37:27.196Z,0.00
2019-03-22T13:40:00.496Z,0.00
2019-03-22T13:42:33.749Z,0.00
2019-03-22T13:45:07.385Z,0.00
2019-03-22T13:47:40.561Z,0.00
2019-03-22T13:50:13.905Z,0.00
2019-03-22T13:52:47.159Z,0.00
2019-03-22T13:55:20.448Z,0.00
2019-03-22T13:57:53.706Z,0.00
2019-03-22T14:00:26.993Z,0.00
2019-03-22T14:03:03.099Z,0.00
2019-03-22T14:05:35.189Z,0.00
2019-03-22T14:08:08.437Z,0.00
2019-03-22T14:10:41.702Z,0.00
2019-03-22T14:13:14.926Z,0.00
2019-03-22T14:15:48.221Z,0.00
2019-03-22T14:18:21.465Z,0.00
2019-03-22T14:20:54.749Z,0.00
2019-03-22T14:23:27.937Z,0.00
2019-03-22T14:26:01.245Z,0.00
2019-03-22T14:28:34.503Z,0.00
2019-03-22T14:31:07.805Z,0.00
2019-03-22T14:33:41.055Z,0.00
2019-03-22T14:36:14.339Z,0.00
2019-03-22T14:38:47.635Z,0.00
2019-03-22T14:41:20.897Z,0.00
2019-03-22T14:43:54.145Z,0.00
2019-03-22T14:46:27.453Z,0.00
2019-03-22T14:49:00.711Z,0.00
2019-03-22T14:51:35.780Z,0.00
2019-03-22T14:54:09.063Z,0.00
2019-03-22T14:56:42.341Z,0.00
2019-03-22T14:59:15.593Z,3.00
2019-03-22T15:01:48.883Z,4.60
2019-03-22T15:04:22.146Z,4.40
2019-03-22T15:06:55.428Z,5.00
2019-03-22T15:09:28.661Z,3.00
2019-03-22T15:12:02.020Z,3.00
2019-03-22T15:14:36.912Z,3.80
2019-03-22T15:17:27.918Z,3.20
2019-03-22T15:20:18.916Z,2.40
2019-03-22T15:22:56.583Z,3.40
2019-03-22T15:25:34.459Z,3.00
2019-03-22T15:28:12.142Z,3.00
2019-03-22T15:30:49.970Z,2.00
2019-03-22T15:33:40.085Z,0.80
2019-03-22T15:36:14.947Z,1.20
2019-03-22T15:39:06.170Z,1.00
2019-03-22T15:41:39.564Z,0.20
2019-03-22T15:44:12.841Z,1.00
2019-03-22T15:46:46.149Z,0.80
2019-03-22T15:49:19.450Z,1.00
2019-03-22T15:51:52.707Z,1.00
2019-03-22T15:54:25.996Z,1.80
2019-03-22T15:56:59.609Z,2.00
2019-03-22T15:59:32.879Z,2.40
2019-03-22T16:02:06.149Z,2.20
2019-03-22T16:04:39.467Z,1.80
2019-03-22T16:07:12.739Z,2.00
2019-03-22T16:09:46.017Z,1.40
2019-03-22T16:12:19.275Z,3.00
2019-03-22T16:14:52.562Z,2.00
2019-03-22T16:17:25.801Z,1.00
2019-03-22T16:19:59.080Z,2.00
2019-03-22T16:22:32.267Z,1.00
2019-03-22T16:25:07.165Z,1.00
2019-03-22T16:27:41.745Z,0.80
2019-03-22T16:30:15.191Z,0.60
2019-03-22T16:32:48.445Z,0.00
2019-03-22T16:35:21.724Z,0.00
2019-03-22T16:37:54.962Z,0.00
2019-03-22T16:40:28.245Z,0.00
2019-03-22T16:43:01.485Z,0.00
2019-03-22T16:45:38.581Z,0.00
2019-03-22T16:48:11.835Z,0.00
2019-03-22T16:50:45.114Z,0.00
2019-03-22T16:53:18.367Z,0.00
2019-03-22T16:55:51.664Z,0.00
2019-03-22T16:58:24.917Z,0.00
2019-03-22T17:00:58.260Z,0.00
2019-03-22T17:03:31.554Z,0.00
2019-03-22T17:06:04.848Z,0.00
2019-03-22T17:08:38.111Z,0.00
2019-03-22T17:11:11.392Z,0.00
2019-03-22T17:13:44.650Z,0.00
2019-03-22T17:16:17.932Z,0.00
2019-03-22T17:18:51.192Z,0.00
2019-03-22T17:21:24.486Z,0.00
2019-03-22T17:23:57.746Z,0.00
2019-03-22T17:26:31.017Z,0.00
2019-03-22T17:29:04.297Z,0.00
2019-03-22T17:31:37.607Z,0.00
2019-03-22T17:34:14.476Z,0.00
2019-03-22T17:36:45.778Z,0.00
2019-03-22T17:39:18.965Z,0.00
2019-03-22T17:41:52.235Z,0.00
2019-03-22T17:44:25.496Z,0.00
2019-03-22T17:46:58.786Z,0.00
2019-03-22T17:49:32.037Z,0.00
2019-03-22T17:52:05.275Z,0.00
2019-03-22T17:54:38.537Z,0.00
2019-03-22T17:57:18.629Z,0.00
2019-03-22T17:59:46.709Z,0.00
2019-03-22T18:02:20.012Z,0.00
2019-03-22T18:04:53.256Z,0.00
2019-03-22T18:07:26.539Z,0.00
2019-03-22T18:09:59.785Z,0.00
2019-03-22T18:12:33.084Z,0.00
2019-03-22T18:15:07.297Z,0.00
2019-03-22T18:17:40.597Z,0.00
2019-03-22T18:20:15.468Z,0.00
2019-03-22T18:22:48.755Z,0.00
2019-03-22T18:25:21.997Z,0.40
2019-03-22T18:27:55.281Z,1.00
2019-03-22T18:30:28.524Z,2.00
2019-03-22T18:33:01.810Z,3.00
2019-03-22T18:35:35.076Z,2.00
2019-03-22T18:38:08.346Z,2.00
2019-03-22T18:40:41.540Z,2.60
2019-03-22T18:43:14.824Z,2.00
2019-03-22T18:45:48.104Z,2.60
2019-03-22T18:48:21.384Z,3.00
2019-03-22T18:50:56.886Z,4.20
2019-03-22T18:53:29.589Z,3.20
2019-03-22T18:56:02.804Z,3.40
2019-03-22T18:58:36.023Z,3.00
2019-03-22T19:01:09.283Z,3.40
2019-03-22T19:03:42.560Z,3.00
2019-03-22T19:06:15.823Z,3.20
2019-03-22T19:08:49.109Z,4.60
2019-03-22T19:11:22.371Z,3.40
2019-03-22T19:13:55.640Z,3.80
2019-03-22T19:16:28.838Z,3.00
2019-03-22T19:19:02.128Z,2.40
2019-03-22T19:21:35.370Z,3.40
2019-03-22T19:24:08.581Z,4.00
2019-03-22T19:26:41.831Z,3.20
2019-03-22T19:29:15.116Z,3.00
2019-03-22T19:31:48.385Z,3.20
2019-03-22T19:34:21.662Z,2.60
2019-03-22T19:36:54.926Z,3.40
2019-03-22T19:39:28.198Z,3.20
2019-03-22T19:42:01.375Z,2.80
2019-03-22T19:44:34.699Z,2.20
2019-03-22T19:47:07.905Z,2.20
2019-03-22T19:49:41.614Z,2.80
2019-03-22T19:52:14.850Z,3.20
2019-03-22T19:54:48.142Z,2.20
2019-03-22T19:57:21.387Z,3.20
2019-03-22T19:59:54.667Z,3.20
2019-03-22T20:02:27.877Z,2.20
2019-03-22T20:05:04.916Z,3.20
2019-03-22T20:07:36.019Z,3.80
2019-03-22T20:10:11.205Z,3.20
2019-03-22T20:12:44.515Z,2.00
2019-03-22T20:15:17.734Z,2.20
2019-03-22T20:17:50.994Z,3.00
2019-03-22T20:20:24.281Z,3.80
2019-03-22T20:22:57.526Z,3.00
2019-03-22T20:25:30.807Z,4.00
2019-03-22T20:28:04.079Z,3.80
2019-03-22T20:30:37.367Z,3.40
2019-03-22T20:33:10.611Z,3.00
2019-03-22T20:35:43.921Z,2.80
2019-03-22T20:38:17.174Z,3.40
2019-03-22T20:40:50.442Z,4.20
2019-03-22T20:43:23.687Z,3.20
2019-03-22T20:45:56.972Z,3.00
2019-03-22T20:48:30.229Z,4.20
2019-03-22T20:51:03.503Z,3.80
2019-03-22T20:53:36.763Z,3.00
2019-03-22T20:56:10.040Z,4.40
2019-03-22T20:58:43.291Z,5.00
2019-03-22T21:01:16.584Z,4.20
2019-03-22T21:03:49.833Z,3.20
2019-03-22T21:06:23.123Z,3.60
2019-03-22T21:08:56.394Z,4.00
2019-03-22T21:11:29.660Z,2.00
2019-03-22T21:14:02.935Z,3.20
2019-03-22T21:16:36.203Z,4.00
2019-03-22T21:19:09.469Z,3.60
2019-03-22T21:21:42.758Z,3.80
2019-03-22T21:24:16.029Z,3.40
2019-03-22T21:26:49.311Z,3.60
2019-03-22T21:29:22.555Z,2.20
2019-03-22T21:31:55.841Z,3.00
2019-03-22T21:34:29.105Z,2.80
2019-03-22T21:37:02.400Z,3.20
2019-03-22T21:39:35.650Z,3.00
2019-03-22T21:42:08.942Z,3.00
2019-03-22T21:44:42.194Z,3.00
2019-03-22T21:47:15.484Z,3.20
2019-03-22T21:49:48.743Z,3.00
2019-03-22T21:52:22.027Z,2.00
2019-03-22T21:54:55.281Z,2.20
2019-03-22T21:57:28.564Z,2.20
2019-03-22T22:00:01.826Z,2.20
2019-03-22T22:02:35.052Z,3.00
2019-03-22T22:05:08.299Z,2.40
2019-03-22T22:07:41.583Z,3.00
2019-03-22T22:10:14.825Z,2.20
2019-03-22T22:12:48.035Z,2.20
2019-03-22T22:15:21.297Z,2.00
2019-03-22T22:17:54.919Z,3.00
2019-03-22T22:20:29.053Z,2.80
2019-03-22T22:23:02.562Z,2.20
2019-03-22T22:25:35.824Z,3.00
2019-03-22T22:28:09.098Z,2.80
2019-03-22T22:30:42.346Z,1.60
2019-03-22T22:33:15.609Z,2.60
2019-03-22T22:35:58.196Z,2.00
2019-03-22T22:38:23.791Z,2.80
2019-03-22T22:40:57.111Z,2.00
2019-03-22T22:43:30.387Z,2.20
2019-03-22T22:46:03.636Z,2.00
2019-03-22T22:48:36.935Z,2.40
2019-03-22T22:51:10.201Z,2.60
2019-03-22T22:53:43.496Z,2.80
2019-03-22T22:56:16.742Z,2.40
2019-03-22T22:58:50.039Z,1.00
2019-03-22T23:01:23.298Z,2.00
2019-03-22T23:03:56.583Z,2.00
2019-03-22T23:06:29.915Z,2.00
2019-03-22T23:09:03.557Z,1.60
2019-03-22T23:11:36.811Z,2.00
2019-03-22T23:14:10.107Z,2.00
2019-03-22T23:16:43.353Z,2.20
2019-03-22T23:19:16.669Z,2.20
2019-03-22T23:21:49.913Z,2.20
2019-03-22T23:24:23.207Z,1.20
2019-03-22T23:26:56.459Z,1.20
2019-03-22T23:29:29.759Z,2.00
2019-03-22T23:32:03.007Z,2.20
2019-03-22T23:34:36.290Z,2.00
2019-03-22T23:37:09.560Z,2.00
2019-03-22T23:39:42.830Z,1.40
2019-03-22T23:42:16.094Z,1.00
2019-03-22T23:44:49.388Z,1.80
2019-03-22T23:47:22.837Z,2.20
2019-03-22T23:49:56.112Z,2.20
2019-03-22T23:52:29.366Z,1.80
2019-03-22T23:55:02.649Z,1.60
2019-03-22T23:57:35.921Z,2.20
